Time;durP1;ratioP1;P1;durP2;ratioP2;P2;SDS_P1;SDS_P2;PMS_P1;PMS_P2;Temp;Humidity;BMP_temperature;BMP_pressure;BME280_temperature;BME280_humidity;BME280_pressure;Samples;Min_cycle;Max_cycle;Signal;HPM_P1;HPM_P2
2024/01/07 00:01:48;;;;;;;47.40;23.90;;;;;;;3.65;74.51;100323.72;107252;1257;106773;-68
2024/01/07 00:04:16;;;;;;;42.70;22.70;;;;;;;3.65;74.40;100316.96;107219;1257;97903;-71
2024/01/07 00:06:46;;;;;;;40.90;21.50;;;;;;;3.65;74.49;100315.52;107136;1257;97732;-69
2024/01/07 00:09:16;;;;;;;42.10;22.40;;;;;;;3.67;74.67;100311.85;107282;1259;112201;-69
2024/01/07 00:11:44;;;;;;;38.30;20.70;;;;;;;3.65;75.23;100296.88;107294;1257;107284;-70
2024/01/07 00:14:15;;;;;;;37.30;21.80;;;;;;;3.59;75.35;100297.30;107099;1261;108127;-69
2024/01/07 00:16:44;;;;;;;43.20;23.40;;;;;;;3.54;75.24;100305.10;107116;1257;97944;-70
2024/01/07 00:19:12;;;;;;;44.50;22.30;;;;;;;3.52;75.21;100298.13;107280;1257;98376;-69
2024/01/07 00:21:41;;;;;;;41.00;21.50;;;;;;;3.54;75.40;100302.98;107227;1260;112080;-69
2024/01/07 00:24:09;;;;;;;46.80;24.70;;;;;;;3.59;75.79;100305.79;107091;1257;108782;-68
2024/01/07 00:26:37;;;;;;;52.40;26.30;;;;;;;3.64;76.03;100305.63;107216;1257;108360;-70
2024/01/07 00:29:07;;;;;;;44.50;24.50;;;;;;;3.67;75.91;100309.00;107206;1256;97858;-70
2024/01/07 00:31:35;;;;;;;41.60;23.30;;;;;;;3.71;75.62;100312.60;107250;1257;97721;-69
2024/01/07 00:34:03;;;;;;;44.30;23.80;;;;;;;3.74;75.88;100308.89;107222;1257;112002;-69
2024/01/07 00:36:32;;;;;;;43.80;22.10;;;;;;;3.77;75.77;100309.59;107243;1257;107301;-69
2024/01/07 00:39:00;;;;;;;41.90;24.20;;;;;;;3.78;75.87;100309.84;107202;1257;108138;-70
2024/01/07 00:41:30;;;;;;;40.60;22.90;;;;;;;3.82;75.76;100304.98;107146;1259;97928;-69
2024/01/07 00:43:59;;;;;;;40.80;23.00;;;;;;;3.83;75.58;100302.96;107232;1257;98590;-70
2024/01/07 00:46:27;;;;;;;41.50;23.30;;;;;;;3.86;75.80;100306.14;107218;1257;111143;-68
2024/01/07 00:48:55;;;;;;;46.50;24.40;;;;;;;3.89;75.69;100302.17;107217;1257;107936;-68
2024/01/07 00:51:24;;;;;;;43.50;24.10;;;;;;;3.94;76.03;100304.91;107202;1257;107675;-69
2024/01/07 00:53:52;;;;;;;39.10;23.10;;;;;;;4.00;76.06;100311.24;107243;1259;97938;-68
2024/01/07 00:56:21;;;;;;;40.20;23.90;;;;;;;4.06;75.97;100310.63;107270;1257;97873;-68
2024/01/07 00:58:49;;;;;;;42.30;23.00;;;;;;;4.10;76.02;100309.50;107263;1257;111317;-69
2024/01/07 01:01:17;;;;;;;39.70;21.90;;;;;;;4.12;75.81;100303.16;107213;1257;108083;-68
2024/01/07 01:03:46;;;;;;;39.20;23.20;;;;;;;4.08;75.54;100304.65;107243;1259;106987;-68
2024/01/07 01:06:14;;;;;;;42.90;24.50;;;;;;;4.05;75.63;100302.14;107231;1257;97911;-68
2024/01/07 01:08:43;;;;;;;37.70;22.00;;;;;;;4.06;75.80;100299.81;107177;1256;97733;-71
2024/01/07 01:11:11;;;;;;;40.40;23.30;;;;;;;4.04;75.58;100301.52;107142;1262;111045;-69
2024/01/07 01:13:39;;;;;;;42.60;23.00;;;;;;;4.02;75.63;100301.30;107232;1256;107363;-69
2024/01/07 01:16:08;;;;;;;40.70;22.50;;;;;;;4.04;75.69;100304.53;106991;1261;108373;-69
2024/01/07 01:18:36;;;;;;;39.90;23.20;;;;;;;4.07;75.79;100303.42;107177;1257;97854;-69
2024/01/07 01:21:05;;;;;;;46.20;24.20;;;;;;;4.12;75.93;100306.30;107283;1257;98396;-67
2024/01/07 01:23:33;;;;;;;45.50;22.70;;;;;;;4.16;76.04;100302.33;107287;1257;112032;-69
2024/01/07 01:26:01;;;;;;;43.60;23.10;;;;;;;4.19;76.08;100304.04;107252;1257;109113;-69
2024/01/07 01:28:29;;;;;;;40.00;22.40;;;;;;;4.23;76.00;100314.09;107232;1259;107254;-68
2024/01/07 01:30:58;;;;;;;44.80;24.10;;;;;;;4.25;75.93;100306.34;107201;1260;97781;-70
2024/01/07 01:33:27;;;;;;;44.80;24.00;;;;;;;4.25;75.80;100301.20;107339;1256;97720;-70
2024/01/07 01:35:56;;;;;;;50.00;24.40;;;;;;;4.27;75.87;100304.96;107209;1257;111592;-70
2024/01/07 01:38:24;;;;;;;46.00;25.50;;;;;;;4.29;75.79;100296.45;107269;1257;107664;-70
2024/01/07 01:40:55;;;;;;;42.50;24.30;;;;;;;4.30;75.87;100290.16;107127;1256;108464;-70
2024/01/07 01:43:27;;;;;;;44.90;25.40;;;;;;;4.32;75.73;100291.11;107191;1260;97926;-70
2024/01/07 01:45:56;;;;;;;39.10;23.30;;;;;;;4.33;75.67;100281.58;107261;1259;97820;-70
2024/01/07 01:48:27;;;;;;;43.20;25.10;;;;;;;4.35;75.63;100278.83;107253;1259;110619;-71
2024/01/07 01:50:57;;;;;;;42.80;24.10;;;;;;;4.38;75.93;100281.41;107174;1255;108100;-70
2024/01/07 01:53:27;;;;;;;51.40;23.20;;;;;;;4.42;75.90;100276.57;107177;1257;108629;-70
2024/01/07 01:55:57;;;;;;;44.00;24.80;;;;;;;4.44;76.06;100271.06;107255;1259;98015;-69
2024/01/07 01:58:27;;;;;;;41.90;23.90;;;;;;;4.44;76.08;100273.94;107194;1257;97797;-69
2024/01/07 02:00:56;;;;;;;39.50;23.50;;;;;;;4.45;75.85;100275.66;107119;1258;111559;-69
2024/01/07 02:03:25;;;;;;;45.10;24.40;;;;;;;4.44;75.77;100273.60;107265;1260;107107;-69
2024/01/07 02:05:56;;;;;;;46.40;26.10;;;;;;;4.43;75.68;100268.89;107090;1258;107451;-69
2024/01/07 02:08:25;;;;;;;51.40;26.30;;;;;;;4.42;75.95;100266.75;107278;1260;97849;-69
2024/01/07 02:10:53;;;;;;;55.80;28.10;;;;;;;4.42;75.65;100259.68;107224;1258;98399;-70
2024/01/07 02:13:22;;;;;;;56.10;28.60;;;;;;;4.39;75.88;100262.16;107219;1260;110422;-69
2024/01/07 02:15:50;;;;;;;58.10;28.40;;;;;;;4.41;75.76;100268.99;107202;1258;108687;-69
2024/01/07 02:18:19;;;;;;;62.10;29.60;;;;;;;4.43;76.13;100265.30;107209;1260;108513;-70
2024/01/07 02:20:47;;;;;;;56.30;29.00;;;;;;;4.39;76.24;100271.44;107251;1256;98363;-70
2024/01/07 02:23:15;;;;;;;61.40;30.20;;;;;;;4.32;76.22;100268.20;107116;1257;97819;-69
2024/01/07 02:25:43;;;;;;;52.20;30.10;;;;;;;4.30;76.61;100272.24;107144;1257;111865;-68
2024/01/07 02:28:12;;;;;;;62.70;30.90;;;;;;;4.30;76.68;100277.39;107145;1263;107354;-68
2024/01/07 02:30:40;;;;;;;61.50;30.50;;;;;;;4.29;76.60;100270.72;107274;1260;108675;-69
2024/01/07 02:33:09;;;;;;;58.70;29.20;;;;;;;4.27;77.13;100270.49;107212;1257;97849;-68
2024/01/07 02:35:38;;;;;;;59.20;28.20;;;;;;;4.25;77.08;100272.26;107239;1255;97707;-68
2024/01/07 02:38:06;;;;;;;53.90;26.60;;;;;;;4.27;77.12;100284.89;107267;1257;111737;-69
2024/01/07 02:40:34;;;;;;;49.20;27.20;;;;;;;4.28;77.02;100287.95;107246;1257;107417;-70
2024/01/07 02:43:03;;;;;;;46.50;24.50;;;;;;;4.31;77.20;100286.34;107171;1259;107036;-69
2024/01/07 02:45:32;;;;;;;51.80;27.00;;;;;;;4.29;77.85;100282.21;107208;1257;97850;-69
2024/01/07 02:48:01;;;;;;;52.50;26.80;;;;;;;4.24;77.66;100279.60;107275;1260;98513;-70
2024/01/07 02:50:29;;;;;;;49.00;25.70;;;;;;;4.20;77.60;100283.60;107293;1257;111755;-70
2024/01/07 02:52:58;;;;;;;53.40;25.80;;;;;;;4.18;77.65;100282.81;107187;1264;108174;-70
2024/01/07 02:55:26;;;;;;;61.20;28.90;;;;;;;4.15;77.63;100276.85;106988;1262;108410;-70
2024/01/07 02:57:54;;;;;;;60.90;28.20;;;;;;;4.14;77.98;100266.98;107197;1260;97845;-69
2024/01/07 03:00:23;;;;;;;60.30;28.60;;;;;;;4.14;77.94;100269.27;107261;1257;97736;-70
2024/01/07 03:02:52;;;;;;;58.10;29.30;;;;;;;4.17;77.79;100267.12;107217;1260;110512;-69
2024/01/07 03:05:21;;;;;;;62.80;29.00;;;;;;;4.20;78.13;100262.61;107272;1257;108575;-70
2024/01/07 03:07:49;;;;;;;60.50;28.50;;;;;;;4.25;78.07;100272.41;107200;1260;108645;-70
2024/01/07 03:10:18;;;;;;;63.30;31.10;;;;;;;4.25;78.53;100280.39;107094;1256;97831;-70
2024/01/07 03:12:46;;;;;;;64.10;30.60;;;;;;;4.20;78.26;100280.23;107245;1257;97834;-70
2024/01/07 03:15:14;;;;;;;55.80;29.20;;;;;;;4.18;78.42;100279.61;107083;1257;112161;-69
2024/01/07 03:17:43;;;;;;;65.60;31.30;;;;;;;4.16;78.55;100283.17;107269;1257;108404;-70
2024/01/07 03:20:12;;;;;;;62.90;30.80;;;;;;;4.15;78.84;100280.56;107218;1257;108557;-70
2024/01/07 03:22:40;;;;;;;62.60;31.20;;;;;;;4.12;78.56;100289.12;107074;1257;97835;-69
2024/01/07 03:25:09;;;;;;;66.50;28.90;;;;;;;4.09;78.81;100289.27;107262;1259;97742;-68
2024/01/07 03:27:37;;;;;;;68.90;30.70;;;;;;;4.06;79.08;100285.25;107236;1257;113007;-68
2024/01/07 03:30:06;;;;;;;76.80;31.40;;;;;;;4.03;78.62;100285.27;107239;1258;108420;-70
2024/01/07 03:32:35;;;;;;;66.80;29.60;;;;;;;4.03;78.93;100285.80;107103;1261;108659;-69
2024/01/07 03:35:03;;;;;;;72.90;32.40;;;;;;;4.04;78.93;100286.46;107218;1260;97854;-69
2024/01/07 03:37:32;;;;;;;70.90;31.70;;;;;;;4.01;78.93;100287.71;107315;1259;97893;-69
2024/01/07 03:40:00;;;;;;;75.90;33.90;;;;;;;3.96;78.80;100286.09;107246;1260;112339;-69
2024/01/07 03:42:29;;;;;;;69.50;30.10;;;;;;;3.94;78.91;100280.92;107224;1257;106409;-67
2024/01/07 03:44:57;;;;;;;73.10;32.20;;;;;;;3.94;78.86;100281.31;107213;1263;108629;-68
2024/01/07 03:47:26;;;;;;;75.20;32.60;;;;;;;3.95;78.99;100283.02;107033;1256;97837;-70
2024/01/07 03:49:55;;;;;;;70.80;32.30;;;;;;;3.92;79.18;100285.67;107260;1259;97976;-70
2024/01/07 03:52:23;;;;;;;75.80;31.30;;;;;;;3.89;79.14;100282.83;107059;1257;111881;-70
2024/01/07 03:54:51;;;;;;;75.60;34.50;;;;;;;3.88;79.18;100285.94;107231;1257;107919;-70
2024/01/07 03:57:20;;;;;;;86.00;34.70;;;;;;;3.93;79.39;100291.48;107251;1257;108150;-70
2024/01/07 03:59:49;;;;;;;81.50;34.40;;;;;;;3.97;79.80;100307.15;107225;1260;97865;-70
2024/01/07 04:02:18;;;;;;;75.30;33.20;;;;;;;4.00;80.21;100322.56;107237;1260;97736;-70
2024/01/07 04:04:46;;;;;;;80.10;34.10;;;;;;;3.96;80.50;100328.16;107095;1256;112038;-70
2024/01/07 04:07:15;;;;;;;81.70;37.00;;;;;;;3.91;80.62;100324.98;107195;1260;108251;-70
2024/01/07 04:09:44;;;;;;;88.30;35.80;;;;;;;3.84;80.72;100327.92;107195;1257;108166;-70
2024/01/07 04:12:12;;;;;;;87.30;34.60;;;;;;;3.77;81.07;100323.58;107224;1257;97837;-70
2024/01/07 04:14:43;;;;;;;85.00;35.30;;;;;;;3.72;81.54;100324.98;107244;1257;98714;-70
2024/01/07 04:17:11;;;;;;;89.10;37.00;;;;;;;3.68;81.63;100322.41;107215;1257;112264;-70
2024/01/07 04:19:40;;;;;;;85.50;36.20;;;;;;;3.64;81.85;100320.20;107231;1256;108504;-70
2024/01/07 04:22:08;;;;;;;97.50;36.80;;;;;;;3.63;81.82;100322.73;107254;1258;107313;-69
2024/01/07 04:24:41;;;;;;;86.80;37.50;;;;;;;3.64;82.03;100322.15;107271;1260;98539;-70
2024/01/07 04:27:10;;;;;;;92.80;37.00;;;;;;;3.62;82.19;100325.80;107304;1257;98376;-70
2024/01/07 04:29:38;;;;;;;102.60;41.80;;;;;;;3.62;82.25;100320.38;107303;1257;112155;-70
2024/01/07 04:32:06;;;;;;;85.80;38.60;;;;;;;3.61;82.47;100319.88;107261;1254;107779;-69
2024/01/07 04:34:34;;;;;;;96.60;40.60;;;;;;;3.59;83.09;100324.55;107344;1257;108236;-70
2024/01/07 04:37:03;;;;;;;99.50;40.60;;;;;;;3.58;82.72;100329.10;107232;1260;97848;-70
2024/01/07 04:39:31;;;;;;;94.60;41.20;;;;;;;3.60;82.55;100335.34;107208;1257;97832;-70
2024/01/07 04:42:00;;;;;;;100.40;43.00;;;;;;;3.60;82.51;100328.59;107353;1254;111445;-70
2024/01/07 04:44:28;;;;;;;96.80;40.40;;;;;;;3.61;82.45;100313.84;107122;1254;108198;-69
2024/01/07 04:46:56;;;;;;;87.00;39.60;;;;;;;3.66;82.65;100306.39;107350;1254;107675;-69
2024/01/07 04:49:25;;;;;;;101.00;43.00;;;;;;;3.70;82.79;100308.10;107380;1259;97854;-69
2024/01/07 04:51:53;;;;;;;105.40;43.30;;;;;;;3.73;82.53;100303.29;107345;1254;97939;-68
2024/01/07 04:54:22;;;;;;;105.90;42.20;;;;;;;3.76;82.47;100295.63;107348;1260;111831;-71
2024/01/07 04:56:50;;;;;;;93.70;40.30;;;;;;;3.81;82.46;100291.92;107268;1257;108359;-70
2024/01/07 04:59:18;;;;;;;111.90;43.50;;;;;;;3.85;82.38;100290.05;107194;1258;108639;-70
2024/01/07 05:01:46;;;;;;;101.00;40.20;;;;;;;3.90;82.19;100285.29;107210;1260;97954;-71
2024/01/07 05:04:15;;;;;;;95.10;41.00;;;;;;;3.93;82.10;100285.42;107253;1257;98492;-70
2024/01/07 05:06:44;;;;;;;100.60;42.40;;;;;;;3.98;82.43;100279.58;107241;1257;110329;-69
2024/01/07 05:09:13;;;;;;;105.00;41.10;;;;;;;4.02;82.53;100277.68;107367;1254;107031;-70
2024/01/07 05:11:41;;;;;;;95.10;40.00;;;;;;;4.10;82.71;100274.48;107339;1260;108633;-71
2024/01/07 05:14:11;;;;;;;93.80;38.20;;;;;;;4.17;82.88;100277.21;107283;1258;97830;-69
2024/01/07 05:16:39;;;;;;;105.60;41.20;;;;;;;4.23;82.74;100273.59;107183;1257;97932;-70
2024/01/07 05:19:08;;;;;;;100.10;39.30;;;;;;;4.27;82.54;100276.14;107163;1258;112154;-69
2024/01/07 05:21:36;;;;;;;99.30;39.20;;;;;;;4.28;82.29;100285.01;107213;1254;107539;-69
2024/01/07 05:24:06;;;;;;;105.70;42.50;;;;;;;4.27;81.84;100279.74;107290;1254;107849;-69
2024/01/07 05:26:42;;;;;;;112.10;43.60;;;;;;;4.28;81.94;100279.48;107366;1260;97930;-70
2024/01/07 05:29:14;;;;;;;92.80;40.30;;;;;;;4.31;81.92;100275.55;107207;1254;98383;-69
2024/01/07 05:31:42;;;;;;;114.10;43.10;;;;;;;4.35;81.98;100271.36;107233;1257;112291;-70
2024/01/07 05:34:11;;;;;;;107.80;42.50;;;;;;;4.38;82.16;100268.81;107232;1260;108639;-68
2024/01/07 05:36:40;;;;;;;114.90;44.40;;;;;;;4.41;82.12;100272.34;107204;1256;107870;-70
2024/01/07 05:39:09;;;;;;;102.40;42.20;;;;;;;4.45;82.24;100272.21;107198;1256;97835;-71
2024/01/07 05:41:41;;;;;;;117.10;43.10;;;;;;;4.46;82.18;100268.81;107231;1257;98504;-70
2024/01/07 05:44:10;;;;;;;108.80;42.10;;;;;;;4.43;81.89;100277.00;107254;1258;111924;-71
2024/01/07 05:46:39;;;;;;;105.40;42.00;;;;;;;4.33;81.40;100290.71;107252;1257;108765;-71
2024/01/07 05:49:08;;;;;;;87.00;37.50;;;;;;;4.27;81.63;100300.15;107174;1257;107200;-70
2024/01/07 05:51:40;;;;;;;96.80;37.60;;;;;;;4.24;82.46;100300.70;107137;1257;98027;-69
2024/01/07 05:54:09;;;;;;;101.50;38.60;;;;;;;4.17;82.68;100305.08;107232;1256;97746;-68
2024/01/07 05:56:40;;;;;;;110.50;42.20;;;;;;;4.13;82.52;100299.91;107356;1254;111906;-68
2024/01/07 05:59:09;;;;;;;89.80;38.00;;;;;;;4.09;82.43;100288.91;107343;1254;108662;-69
2024/01/07 06:01:37;;;;;;;100.10;41.60;;;;;;;4.09;82.54;100279.52;107150;1260;108140;-69
2024/01/07 06:04:06;;;;;;;107.40;41.40;;;;;;;4.10;82.34;100271.86;107190;1257;97820;-69
2024/01/07 06:06:35;;;;;;;102.60;38.80;;;;;;;4.10;82.39;100266.86;107252;1257;98390;-71
2024/01/07 06:09:04;;;;;;;105.80;43.50;;;;;;;4.13;82.79;100275.39;107160;1257;112016;-69
2024/01/07 06:11:32;;;;;;;93.40;40.80;;;;;;;4.17;82.70;100276.85;107216;1256;108114;-71
2024/01/07 06:14:01;;;;;;;101.40;41.30;;;;;;;4.20;82.87;100276.11;107045;1257;108212;-70
2024/01/07 06:16:29;;;;;;;100.60;41.50;;;;;;;4.18;82.82;100271.64;107160;1257;97931;-69
2024/01/07 06:18:57;;;;;;;116.40;43.40;;;;;;;4.18;82.76;100276.77;107213;1256;99017;-70
2024/01/07 06:21:26;;;;;;;105.50;44.40;;;;;;;4.22;83.17;100277.05;107242;1257;110441;-70
2024/01/07 06:23:55;;;;;;;108.50;42.60;;;;;;;4.26;83.10;100284.41;107237;1257;108471;-70
2024/01/07 06:26:23;;;;;;;100.90;39.90;;;;;;;4.25;83.47;100278.59;107274;1256;107591;-72
2024/01/07 06:28:52;;;;;;;100.70;42.70;;;;;;;4.21;83.38;100278.20;107238;1256;97828;-69
2024/01/07 06:31:20;;;;;;;92.30;39.60;;;;;;;4.20;83.15;100274.20;107220;1257;97748;-69
2024/01/07 06:33:49;;;;;;;98.30;39.40;;;;;;;4.20;83.71;100274.20;107288;1257;111238;-68
2024/01/07 06:36:18;;;;;;;87.20;38.00;;;;;;;4.20;83.38;100269.58;107287;1259;107756;-69
2024/01/07 06:38:46;;;;;;;90.60;38.40;;;;;;;4.20;83.25;100259.29;107254;1259;108389;-71
2024/01/07 06:41:14;;;;;;;84.30;37.10;;;;;;;4.22;83.26;100257.36;107276;1257;97957;-70
2024/01/07 06:43:43;;;;;;;79.50;35.40;;;;;;;4.20;83.47;100261.20;107090;1257;97781;-70
2024/01/07 06:46:11;;;;;;;90.90;38.80;;;;;;;4.18;83.23;100264.02;107157;1260;110974;-71
2024/01/07 06:48:40;;;;;;;82.60;36.80;;;;;;;4.20;83.51;100261.02;107275;1257;107797;-70
2024/01/07 06:51:15;;;;;;;85.70;38.80;;;;;;;4.23;83.85;100263.84;107261;1257;107980;-70
2024/01/07 06:53:43;;;;;;;76.70;35.40;;;;;;;4.24;83.58;100265.05;107041;1257;97825;-70
2024/01/07 06:56:13;;;;;;;81.70;36.90;;;;;;;4.21;83.23;100268.89;107257;1255;97691;-71
2024/01/07 06:58:41;;;;;;;83.10;37.40;;;;;;;4.24;83.21;100270.36;107266;1259;111970;-69
2024/01/07 07:01:09;;;;;;;85.50;37.50;;;;;;;4.28;83.37;100269.17;107243;1256;109173;-70
2024/01/07 07:03:40;;;;;;;86.80;37.50;;;;;;;4.33;83.64;100266.14;107221;1257;108243;-69
2024/01/07 07:06:08;;;;;;;91.80;36.90;;;;;;;4.37;83.58;100264.08;107075;1256;98483;-68
2024/01/07 07:08:37;;;;;;;75.30;35.90;;;;;;;4.44;83.67;100271.60;107089;1257;98402;-69
2024/01/07 07:11:05;;;;;;;87.30;38.70;;;;;;;4.48;83.56;100269.17;107341;1256;110906;-70
2024/01/07 07:13:34;;;;;;;78.70;35.00;;;;;;;4.52;83.65;100271.19;107283;1257;107630;-69
2024/01/07 07:16:02;;;;;;;82.00;36.80;;;;;;;4.58;83.52;100275.78;107215;1255;107920;-70
2024/01/07 07:18:30;;;;;;;87.10;38.00;;;;;;;4.62;83.58;100275.80;107238;1257;97986;-69
2024/01/07 07:20:59;;;;;;;84.30;37.10;;;;;;;4.65;83.73;100277.23;107245;1257;97875;-70
2024/01/07 07:23:27;;;;;;;77.70;35.30;;;;;;;4.65;83.43;100280.45;107146;1256;111909;-69
2024/01/07 07:25:56;;;;;;;79.10;35.90;;;;;;;4.66;83.35;100278.23;107164;1260;108791;-70
2024/01/07 07:28:24;;;;;;;74.90;36.50;;;;;;;4.70;83.73;100270.67;107140;1257;108592;-71
2024/01/07 07:30:53;;;;;;;68.80;32.50;;;;;;;4.73;83.74;100266.36;107082;1257;97838;-71
2024/01/07 07:33:22;;;;;;;80.90;35.10;;;;;;;4.77;83.52;100271.58;107236;1256;98501;-69
2024/01/07 07:35:51;;;;;;;72.00;34.20;;;;;;;4.80;83.84;100271.21;107158;1256;111977;-69
2024/01/07 07:38:19;;;;;;;84.50;41.20;;;;;;;4.83;83.68;100268.28;107126;1260;108188;-69
2024/01/07 07:40:52;;;;;;;69.00;31.50;;;;;;;4.84;83.33;100268.76;107076;1260;107736;-69
2024/01/07 07:43:21;;;;;;;62.70;28.50;;;;;;;4.80;83.36;100269.05;107128;1257;97966;-69
2024/01/07 07:45:50;;;;;;;64.60;30.80;;;;;;;4.78;83.41;100268.34;107251;1256;97953;-69
2024/01/07 07:48:19;;;;;;;75.50;34.00;;;;;;;4.79;83.40;100270.89;107282;1257;111932;-70
2024/01/07 07:50:49;;;;;;;74.60;36.10;;;;;;;4.83;83.79;100270.04;107248;1257;107583;-70
2024/01/07 07:53:18;;;;;;;65.20;33.10;;;;;;;4.86;83.67;100262.02;107253;1257;107001;-70
2024/01/07 07:55:46;;;;;;;69.20;34.10;;;;;;;4.86;83.44;100260.77;107315;1257;97850;-70
2024/01/07 07:58:15;;;;;;;74.70;37.40;;;;;;;4.83;83.11;100262.05;107244;1257;97743;-71
2024/01/07 08:00:44;;;;;;;70.30;36.00;;;;;;;4.82;83.37;100263.02;107243;1257;111368;-69
2024/01/07 08:03:13;;;;;;;68.60;34.90;;;;;;;4.86;83.42;100262.72;107274;1257;107046;-69
2024/01/07 08:05:41;;;;;;;70.40;33.20;;;;;;;4.91;83.77;100263.14;107237;1256;108197;-70
2024/01/07 08:08:11;;;;;;;63.70;32.70;;;;;;;4.94;83.70;100263.39;107247;1256;97847;-71
2024/01/07 08:10:39;;;;;;;67.20;32.60;;;;;;;4.98;84.07;100257.83;107278;1256;98424;-68
2024/01/07 08:13:08;;;;;;;63.30;32.00;;;;;;;5.00;84.02;100257.42;107266;1256;111964;-69
2024/01/07 08:15:37;;;;;;;58.30;29.50;;;;;;;4.94;83.59;100258.24;107295;1257;108758;-69
2024/01/07 08:18:06;;;;;;;41.50;21.90;;;;;;;4.89;83.72;100254.90;107244;1256;108507;-71
2024/01/07 08:20:34;;;;;;;31.20;14.40;;;;;;;4.86;84.07;100250.13;107241;1257;97835;-70
2024/01/07 08:23:04;;;;;;;16.90;9.50;;;;;;;4.84;84.38;100249.94;107256;1259;97726;-70
2024/01/07 08:25:32;;;;;;;14.20;7.90;;;;;;;4.83;84.75;100248.39;107286;1257;111365;-69
2024/01/07 08:28:01;;;;;;;15.90;8.20;;;;;;;4.82;85.15;100247.18;107229;1257;108322;-70
2024/01/07 08:30:29;;;;;;;16.50;8.50;;;;;;;4.80;85.58;100249.15;107135;1257;108748;-71
2024/01/07 08:32:58;;;;;;;14.90;8.40;;;;;;;4.74;86.08;100250.30;107266;1257;97848;-71
2024/01/07 08:35:26;;;;;;;13.80;8.00;;;;;;;4.66;86.28;100250.70;107101;1257;98405;-70
2024/01/07 08:37:55;;;;;;;17.10;8.80;;;;;;;4.61;86.65;100258.34;107319;1256;111131;-69
2024/01/07 08:40:24;;;;;;;14.70;8.30;;;;;;;4.58;86.91;100253.25;107269;1257;108632;-70
2024/01/07 08:42:52;;;;;;;16.70;8.20;;;;;;;4.53;87.11;100254.42;107278;1259;108471;-73
2024/01/07 08:45:21;;;;;;;16.50;8.40;;;;;;;4.50;86.83;100251.48;106813;1259;745937;-71
2024/01/07 08:47:49;;;;;;;13.60;7.40;;;;;;;4.52;87.20;100245.49;107314;1257;97820;-70
2024/01/07 08:50:18;;;;;;;14.50;7.70;;;;;;;4.53;87.60;100245.58;107346;1257;112222;-71
2024/01/07 08:52:47;;;;;;;13.80;8.20;;;;;;;4.50;87.63;100243.48;107316;1256;107140;-71
2024/01/07 08:55:15;;;;;;;13.90;8.20;;;;;;;4.50;87.60;100242.21;107221;1257;108101;-70
2024/01/07 08:57:45;;;;;;;15.00;8.00;;;;;;;4.50;87.42;100235.32;107117;1256;97851;-70
2024/01/07 09:00:14;;;;;;;14.00;8.00;;;;;;;4.49;87.49;100230.41;107195;1257;98499;-70
2024/01/07 09:02:42;;;;;;;15.80;8.60;;;;;;;4.44;87.20;100224.05;107330;1256;112099;-72
2024/01/07 09:05:14;;;;;;;15.50;8.00;;;;;;;4.40;87.30;100218.82;107324;1256;107528;-70
2024/01/07 09:07:43;;;;;;;16.20;8.20;;;;;;;4.38;87.39;100222.44;107321;1257;107878;-71
2024/01/07 09:10:13;;;;;;;18.10;9.10;;;;;;;4.37;87.25;100219.37;107101;1256;97880;-70
2024/01/07 09:12:41;;;;;;;16.80;9.00;;;;;;;4.37;87.00;100218.64;107282;1256;97930;-70
2024/01/07 09:15:10;;;;;;;15.80;9.40;;;;;;;4.36;87.47;100222.42;107311;1257;110346;-70
2024/01/07 09:17:39;;;;;;;17.50;8.40;;;;;;;4.32;87.29;100223.97;107331;1256;109460;-70
2024/01/07 09:20:09;;;;;;;17.70;9.80;;;;;;;4.28;87.19;100227.69;107286;1256;107080;-70
2024/01/07 09:22:37;;;;;;;21.00;9.90;;;;;;;4.25;87.19;100223.95;107282;1257;99165;-70
2024/01/07 09:25:06;;;;;;;21.60;8.80;;;;;;;4.24;87.54;100213.33;107257;1256;97893;-71
2024/01/07 09:27:35;;;;;;;17.00;9.30;;;;;;;4.20;87.61;100207.97;107193;1256;110494;-71
2024/01/07 09:30:04;;;;;;;19.10;9.80;;;;;;;4.13;87.92;100206.14;107300;1256;108238;-70
2024/01/07 09:32:32;;;;;;;16.90;9.40;;;;;;;4.10;88.15;100204.40;107296;1257;106774;-72
2024/01/07 09:35:06;;;;;;;20.40;10.10;;;;;;;4.07;88.58;100202.31;107255;1256;97842;-71
2024/01/07 09:37:37;;;;;;;17.60;8.90;;;;;;;4.04;88.39;100203.23;107322;1256;97899;-70
2024/01/07 09:40:06;;;;;;;18.00;9.00;;;;;;;3.99;88.48;100199.27;107262;1257;112017;-70
2024/01/07 09:42:35;;;;;;;17.60;9.50;;;;;;;3.96;88.39;100201.29;107249;1257;108729;-70
2024/01/07 09:45:05;;;;;;;19.20;9.40;;;;;;;3.96;88.74;100207.67;107265;1257;107723;-70
2024/01/07 09:47:35;;;;;;;15.80;9.40;;;;;;;3.97;88.63;100204.98;107328;1256;97825;-70
2024/01/07 09:50:05;;;;;;;17.10;9.10;;;;;;;3.96;88.97;100195.84;107289;1256;97835;-70
2024/01/07 09:52:33;;;;;;;15.40;9.00;;;;;;;3.90;88.95;100192.64;107304;1259;110669;-70
2024/01/07 09:55:06;;;;;;;17.00;8.90;;;;;;;3.85;88.78;100193.55;107246;1259;107498;-69
2024/01/07 09:57:35;;;;;;;17.00;9.10;;;;;;;3.87;88.75;100191.66;107125;1256;108722;-70
2024/01/07 10:00:04;;;;;;;16.90;9.90;;;;;;;3.87;89.11;100193.05;107212;1257;97985;-70
2024/01/07 10:02:41;;;;;;;18.30;10.90;;;;;;;3.84;89.24;100188.30;107285;1256;97747;-70
2024/01/07 10:05:09;;;;;;;21.00;10.40;;;;;;;3.81;88.99;100185.66;107326;1256;111660;-70
2024/01/07 10:07:38;;;;;;;19.90;11.30;;;;;;;3.78;89.14;100181.31;107143;1257;108553;-71
2024/01/07 10:10:17;;;;;;;21.20;11.80;;;;;;;3.77;89.31;100172.29;107027;1257;107863;-69
2024/01/07 10:12:47;;;;;;;19.20;10.30;;;;;;;3.70;89.19;100169.90;106916;1257;97855;-70
2024/01/07 10:15:15;;;;;;;16.90;9.70;;;;;;;3.64;89.01;100169.30;107105;1256;97750;-70
2024/01/07 10:17:45;;;;;;;20.70;11.20;;;;;;;3.59;89.30;100168.36;107046;1256;111466;-70
2024/01/07 10:20:16;;;;;;;16.90;9.80;;;;;;;3.56;89.29;100170.19;107165;1257;107826;-69
2024/01/07 10:22:50;;;;;;;13.70;8.50;;;;;;;3.57;89.49;100166.41;107209;1257;107764;-69
2024/01/07 10:25:19;;;;;;;17.10;9.10;;;;;;;3.54;89.51;100164.84;107055;1257;97903;-69
2024/01/07 10:27:47;;;;;;;18.90;7.80;;;;;;;3.49;89.62;100166.55;107251;1256;97846;-70
2024/01/07 10:30:16;;;;;;;14.50;9.30;;;;;;;3.49;89.45;100165.02;107226;1256;111618;-69
2024/01/07 10:32:46;;;;;;;16.30;8.80;;;;;;;3.46;89.60;100168.34;107245;1257;108341;-70
2024/01/07 10:35:20;;;;;;;21.10;10.20;;;;;;;3.43;89.53;100168.39;107202;1257;109003;-69
2024/01/07 10:37:48;;;;;;;13.10;8.70;;;;;;;3.43;89.62;100168.94;107149;1257;97857;-70
2024/01/07 10:40:17;;;;;;;16.60;8.90;;;;;;;3.39;89.41;100170.66;107222;1255;97752;-70
2024/01/07 10:42:46;;;;;;;13.30;7.80;;;;;;;3.35;89.68;100166.08;107026;1256;112073;-69
2024/01/07 10:45:15;;;;;;;16.00;8.20;;;;;;;3.34;89.65;100165.14;107065;1257;108215;-71
2024/01/07 10:47:49;;;;;;;14.10;9.00;;;;;;;3.32;89.61;100161.89;107161;1257;106988;-70
2024/01/07 10:50:18;;;;;;;16.50;9.30;;;;;;;3.31;89.74;100156.65;107186;1257;97935;-70
2024/01/07 10:52:51;;;;;;;14.60;9.10;;;;;;;3.27;90.04;100153.55;107270;1257;98393;-67
2024/01/07 10:55:26;;;;;;;17.00;10.20;;;;;;;3.20;89.95;100153.83;107191;1256;111694;-68
2024/01/07 10:57:57;;;;;;;15.70;8.90;;;;;;;3.19;90.11;100152.50;107254;1256;108639;-71
2024/01/07 11:00:25;;;;;;;14.80;8.40;;;;;;;3.20;90.06;100156.34;107190;1256;108137;-70
2024/01/07 11:02:57;;;;;;;19.70;9.60;;;;;;;3.21;90.04;100151.11;106977;1255;97893;-70
2024/01/07 11:05:34;;;;;;;18.90;9.40;;;;;;;3.23;90.16;100146.15;107011;1257;97737;-70
2024/01/07 11:08:40;;;;;;;15.60;9.40;;;;;;;3.24;89.84;100144.88;107132;1257;111902;-69
2024/01/07 11:11:08;;;;;;;14.50;8.80;;;;;;;3.19;89.65;100146.08;107331;1257;108580;-71
2024/01/07 11:13:38;;;;;;;13.90;8.30;;;;;;;3.19;89.93;100152.48;107288;1257;108468;-68